Airfield :
LOGIN :

Register | Disclaimer

   EN    FR    IT 

 










Legend :    VFR   Marginal VFR   IFR   Intensive IFR   Very Intensive IFR
Visi :
Ceiling :
>= 8 km
>= 3000ft
5 to 8 km
1000 to 3000 ft
1500m to 5 km
500 to 1000 ft
800 to 1500m
200 to 500 ft
< 800m
< 200 ft
Symbols :   Thunderstorms  Fog  Heavy snow  Heavy precipitations  Wind > 20 kt
SIGMETs :     Misc.  Thunderstorms  Icing  Turbulence  Mountain Waves  Volcanic Ashes







- Airport Elevation : 1363 ft


ETIC - Grafenwohr Army Air Field

CURRENT METAR :
  • 230641Z AUTO 22004KT 9999 OVC007 04/04 A3029 RMK AO2 SLP272 $

EXPIRED METARs :
  • 230632Z AUTO 00000KT 9999 BKN008 03/03 A3030 RMK AO2 CIG 008V035 SLP275 $
  • 230617Z AUTO 20003KT 9999 FEW004 SCT032 02/02 A3029 RMK AO2 SLP272 $
  • 230556Z AUTO 27003KT 9999 OVC032 01/01 A3031 RMK AO2 SLP280 T00100010 10028 20002 56018 $
  • 230456Z AUTO 00000KT 9999 SCT031 00/00 A3031 RMK AO2 SLP280 T00040004 $
  • 230356Z AUTO 00000KT 9999 SCT012 BKN036 02/02 A3033 RMK AO2 SLP283 T00150015 $

TAF TAF ETIC
Valid from the 23 at 06:00 until the 24 at 12:00 UTC


230603Z 2306/2412 27009KT 8000 BR SCT012 BKN040 QNH3034INS
BECMG 2308/2309 25010G15KT 9999 NSW SCT050 BKN150 QNH3015INS
BECMG 2311/2312 25012G18KT 9999 SCT050 BKN150 QNH3014INS
BECMG 2319/2320 27015G25KT 8000 SHRA SCT015 BKN030 QNH3005INS
TEMPO 2321/2401 27025G35KT 510003
BECMG 2400/2401 27012G18KT 6000 -SHRA SCT008 BKN015 QNH3006INS TX11/2315Z TN00/2306Z
No reported NOTAMs for that airfield.



MET'MAP, your aeronautical weather chart ! - Copyright ORBIFLY December 2007 - Disclaimer

ORBIFLY MET'MAP TEAM :

Programming & Development : Alexandra Zaïnal
Concept & Development : Baudouin d'Aumeries
Co-Development & Prog : Marc-Olivier Méhu
Technical & hardware support : Manuel Goepfert

Contact : metmap@orbifly.com




SOURCES & CREDITS :

   NOAA